sensor_id;sensor_type;location;lat;lon;timestamp;P1;durP1;ratioP1;P2;durP2;ratioP2
47784;SDS011;35233;55.686;37.848;2022-12-18T00:01:35;9.88;;;6.13;;
47784;SDS011;35233;55.686;37.848;2022-12-18T00:04:03;7.65;;;5.88;;
47784;SDS011;35233;55.686;37.848;2022-12-18T00:06:30;9.27;;;6.47;;
47784;SDS011;35233;55.686;37.848;2022-12-18T00:08:58;7.95;;;5.85;;
47784;SDS011;35233;55.686;37.848;2022-12-18T00:11:25;9.10;;;6.32;;
47784;SDS011;35233;55.686;37.848;2022-12-18T00:13:54;9.05;;;6.43;;
47784;SDS011;35233;55.686;37.848;2022-12-18T00:16:22;7.95;;;5.70;;
47784;SDS011;35233;55.686;37.848;2022-12-18T00:18:50;9.02;;;6.20;;
47784;SDS011;35233;55.686;37.848;2022-12-18T00:21:18;8.70;;;6.63;;
47784;SDS011;35233;55.686;37.848;2022-12-18T00:23:45;8.73;;;6.00;;
47784;SDS011;35233;55.686;37.848;2022-12-18T00:26:15;8.27;;;6.20;;
47784;SDS011;35233;55.686;37.848;2022-12-18T00:28:46;8.38;;;6.15;;
47784;SDS011;35233;55.686;37.848;2022-12-18T00:31:14;8.95;;;6.07;;
47784;SDS011;35233;55.686;37.848;2022-12-18T00:33:41;8.15;;;6.13;;
47784;SDS011;35233;55.686;37.848;2022-12-18T00:36:09;9.15;;;6.03;;
47784;SDS011;35233;55.686;37.848;2022-12-18T00:38:37;8.60;;;6.10;;
47784;SDS011;35233;55.686;37.848;2022-12-18T00:41:03;7.85;;;5.50;;
47784;SDS011;35233;55.686;37.848;2022-12-18T00:43:29;7.47;;;5.88;;
47784;SDS011;35233;55.686;37.848;2022-12-18T00:45:55;7.25;;;5.40;;
47784;SDS011;35233;55.686;37.848;2022-12-18T00:48:20;9.23;;;5.97;;
47784;SDS011;35233;55.686;37.848;2022-12-18T00:50:50;7.72;;;5.50;;
47784;SDS011;35233;55.686;37.848;2022-12-18T00:53:16;8.90;;;5.68;;
47784;SDS011;35233;55.686;37.848;2022-12-18T00:55:42;9.48;;;5.93;;
47784;SDS011;35233;55.686;37.848;2022-12-18T00:58:08;8.80;;;5.55;;
47784;SDS011;35233;55.686;37.848;2022-12-18T01:00:35;6.88;;;5.22;;
47784;SDS011;35233;55.686;37.848;2022-12-18T01:03:01;7.55;;;5.72;;
47784;SDS011;35233;55.686;37.848;2022-12-18T01:05:27;10.15;;;5.63;;
47784;SDS011;35233;55.686;37.848;2022-12-18T01:07:52;7.68;;;5.43;;
47784;SDS011;35233;55.686;37.848;2022-12-18T01:10:18;8.35;;;6.00;;
47784;SDS011;35233;55.686;37.848;2022-12-18T01:12:43;7.55;;;5.50;;
47784;SDS011;35233;55.686;37.848;2022-12-18T01:15:10;10.00;;;5.10;;
47784;SDS011;35233;55.686;37.848;2022-12-18T01:17:37;7.32;;;5.30;;
47784;SDS011;35233;55.686;37.848;2022-12-18T01:20:03;7.00;;;5.15;;
47784;SDS011;35233;55.686;37.848;2022-12-18T01:22:29;7.60;;;5.57;;
47784;SDS011;35233;55.686;37.848;2022-12-18T01:24:55;7.50;;;5.57;;
47784;SDS011;35233;55.686;37.848;2022-12-18T01:27:20;7.65;;;5.22;;
47784;SDS011;35233;55.686;37.848;2022-12-18T01:29:47;7.32;;;5.53;;
47784;SDS011;35233;55.686;37.848;2022-12-18T01:32:12;7.72;;;4.72;;
47784;SDS011;35233;55.686;37.848;2022-12-18T01:34:38;7.18;;;5.38;;
47784;SDS011;35233;55.686;37.848;2022-12-18T01:37:04;7.13;;;5.38;;
47784;SDS011;35233;55.686;37.848;2022-12-18T01:39:30;7.63;;;5.30;;
47784;SDS011;35233;55.686;37.848;2022-12-18T01:41:59;6.70;;;4.97;;
47784;SDS011;35233;55.686;37.848;2022-12-18T01:50:10;7.07;;;4.75;;
47784;SDS011;35233;55.686;37.848;2022-12-18T01:52:37;6.72;;;4.75;;
47784;SDS011;35233;55.686;37.848;2022-12-18T01:55:03;6.65;;;4.72;;
47784;SDS011;35233;55.686;37.848;2022-12-18T01:57:32;7.30;;;5.20;;
47784;SDS011;35233;55.686;37.848;2022-12-18T01:59:59;7.03;;;5.15;;
47784;SDS011;35233;55.686;37.848;2022-12-18T02:02:30;6.70;;;5.25;;
47784;SDS011;35233;55.686;37.848;2022-12-18T02:04:55;8.05;;;5.25;;
47784;SDS011;35233;55.686;37.848;2022-12-18T02:13:29;6.28;;;5.00;;
47784;SDS011;35233;55.686;37.848;2022-12-18T02:18:47;6.97;;;5.15;;
47784;SDS011;35233;55.686;37.848;2022-12-18T02:26:50;7.75;;;4.70;;
47784;SDS011;35233;55.686;37.848;2022-12-18T02:29:22;7.75;;;4.95;;
47784;SDS011;35233;55.686;37.848;2022-12-18T02:31:53;7.13;;;4.65;;
47784;SDS011;35233;55.686;37.848;2022-12-18T02:34:23;6.85;;;5.13;;
47784;SDS011;35233;55.686;37.848;2022-12-18T02:36:54;7.20;;;4.97;;
47784;SDS011;35233;55.686;37.848;2022-12-18T02:39:22;8.52;;;5.25;;
47784;SDS011;35233;55.686;37.848;2022-12-18T02:41:50;7.60;;;5.10;;
47784;SDS011;35233;55.686;37.848;2022-12-18T02:44:16;7.07;;;5.20;;
47784;SDS011;35233;55.686;37.848;2022-12-18T02:57:12;6.63;;;5.05;;
47784;SDS011;35233;55.686;37.848;2022-12-18T03:05:43;7.07;;;4.93;;
47784;SDS011;35233;55.686;37.848;2022-12-18T03:08:18;7.07;;;5.00;;
47784;SDS011;35233;55.686;37.848;2022-12-18T03:11:11;7.32;;;5.15;;
47784;SDS011;35233;55.686;37.848;2022-12-18T03:13:43;6.93;;;4.80;;
47784;SDS011;35233;55.686;37.848;2022-12-18T03:16:14;6.20;;;4.65;;
47784;SDS011;35233;55.686;37.848;2022-12-18T03:18:46;6.30;;;4.70;;
47784;SDS011;35233;55.686;37.848;2022-12-18T03:21:17;6.13;;;4.47;;
47784;SDS011;35233;55.686;37.848;2022-12-18T03:23:47;6.22;;;4.80;;
47784;SDS011;35233;55.686;37.848;2022-12-18T03:26:15;6.97;;;5.00;;
47784;SDS011;35233;55.686;37.848;2022-12-18T03:28:47;5.60;;;4.40;;
47784;SDS011;35233;55.686;37.848;2022-12-18T03:31:22;6.82;;;5.03;;
47784;SDS011;35233;55.686;37.848;2022-12-18T03:33:54;6.32;;;4.68;;
47784;SDS011;35233;55.686;37.848;2022-12-18T03:36:24;5.63;;;4.00;;
47784;SDS011;35233;55.686;37.848;2022-12-18T03:38:51;5.90;;;4.38;;
47784;SDS011;35233;55.686;37.848;2022-12-18T03:41:31;6.75;;;4.80;;
47784;SDS011;35233;55.686;37.848;2022-12-18T03:44:11;6.22;;;4.32;;
47784;SDS011;35233;55.686;37.848;2022-12-18T03:49:38;6.18;;;4.47;;
47784;SDS011;35233;55.686;37.848;2022-12-18T03:54:45;5.57;;;4.32;;
47784;SDS011;35233;55.686;37.848;2022-12-18T03:57:13;6.10;;;4.50;;
47784;SDS011;35233;55.686;37.848;2022-12-18T03:59:52;6.97;;;4.50;;
47784;SDS011;35233;55.686;37.848;2022-12-18T04:02:22;6.78;;;4.93;;
47784;SDS011;35233;55.686;37.848;2022-12-18T04:04:50;5.60;;;4.25;;
47784;SDS011;35233;55.686;37.848;2022-12-18T04:07:22;7.40;;;4.63;;
47784;SDS011;35233;55.686;37.848;2022-12-18T04:09:49;5.70;;;4.32;;
47784;SDS011;35233;55.686;37.848;2022-12-18T04:12:20;6.20;;;4.53;;
47784;SDS011;35233;55.686;37.848;2022-12-18T04:14:46;5.68;;;4.32;;
47784;SDS011;35233;55.686;37.848;2022-12-18T04:17:11;5.97;;;4.32;;
47784;SDS011;35233;55.686;37.848;2022-12-18T04:19:37;6.32;;;4.45;;
47784;SDS011;35233;55.686;37.848;2022-12-18T04:22:02;6.50;;;4.95;;
47784;SDS011;35233;55.686;37.848;2022-12-18T04:24:28;6.20;;;4.43;;
47784;SDS011;35233;55.686;37.848;2022-12-18T04:26:53;6.75;;;5.10;;
47784;SDS011;35233;55.686;37.848;2022-12-18T04:29:19;6.22;;;4.50;;
47784;SDS011;35233;55.686;37.848;2022-12-18T04:31:45;6.03;;;4.63;;
47784;SDS011;35233;55.686;37.848;2022-12-18T04:34:10;6.25;;;4.60;;
47784;SDS011;35233;55.686;37.848;2022-12-18T04:36:36;6.53;;;4.65;;
47784;SDS011;35233;55.686;37.848;2022-12-18T04:39:02;5.82;;;4.18;;
47784;SDS011;35233;55.686;37.848;2022-12-18T04:41:27;7.15;;;4.70;;
47784;SDS011;35233;55.686;37.848;2022-12-18T04:43:53;7.30;;;4.45;;
47784;SDS011;35233;55.686;37.848;2022-12-18T04:46:18;5.65;;;4.07;;
47784;SDS011;35233;55.686;37.848;2022-12-18T04:48:45;6.65;;;4.80;;
47784;SDS011;35233;55.686;37.848;2022-12-18T04:51:11;5.72;;;4.43;;
47784;SDS011;35233;55.686;37.848;2022-12-18T04:53:37;6.78;;;4.40;;
47784;SDS011;35233;55.686;37.848;2022-12-18T04:56:08;5.75;;;4.63;;
47784;SDS011;35233;55.686;37.848;2022-12-18T04:58:35;6.22;;;4.65;;
47784;SDS011;35233;55.686;37.848;2022-12-18T05:01:01;6.22;;;4.43;;
47784;SDS011;35233;55.686;37.848;2022-12-18T05:03:27;7.78;;;4.60;;
47784;SDS011;35233;55.686;37.848;2022-12-18T05:05:56;6.25;;;4.55;;
47784;SDS011;35233;55.686;37.848;2022-12-18T05:08:21;5.63;;;4.22;;
47784;SDS011;35233;55.686;37.848;2022-12-18T05:10:47;5.82;;;4.03;;
47784;SDS011;35233;55.686;37.848;2022-12-18T05:13:12;7.35;;;4.30;;
47784;SDS011;35233;55.686;37.848;2022-12-18T05:15:41;5.80;;;4.20;;
47784;SDS011;35233;55.686;37.848;2022-12-18T05:18:07;6.05;;;4.47;;
47784;SDS011;35233;55.686;37.848;2022-12-18T05:20:32;5.75;;;4.13;;
47784;SDS011;35233;55.686;37.848;2022-12-18T05:22:58;6.75;;;4.43;;
47784;SDS011;35233;55.686;37.848;2022-12-18T05:25:24;6.28;;;4.40;;
47784;SDS011;35233;55.686;37.848;2022-12-18T05:27:49;6.10;;;4.07;;
47784;SDS011;35233;55.686;37.848;2022-12-18T05:30:15;5.88;;;4.13;;
47784;SDS011;35233;55.686;37.848;2022-12-18T05:32:40;6.13;;;4.43;;
47784;SDS011;35233;55.686;37.848;2022-12-18T05:35:08;6.35;;;4.50;;
47784;SDS011;35233;55.686;37.848;2022-12-18T05:37:35;6.07;;;4.28;;
47784;SDS011;35233;55.686;37.848;2022-12-18T05:40:01;6.28;;;4.38;;
47784;SDS011;35233;55.686;37.848;2022-12-18T05:42:27;5.85;;;4.53;;
47784;SDS011;35233;55.686;37.848;2022-12-18T05:44:53;6.47;;;4.60;;
47784;SDS011;35233;55.686;37.848;2022-12-18T05:47:18;6.60;;;4.20;;
47784;SDS011;35233;55.686;37.848;2022-12-18T05:49:44;6.70;;;4.70;;
47784;SDS011;35233;55.686;37.848;2022-12-18T05:52:09;5.30;;;4.07;;
47784;SDS011;35233;55.686;37.848;2022-12-18T05:54:35;5.80;;;4.35;;
47784;SDS011;35233;55.686;37.848;2022-12-18T05:57:00;5.90;;;4.47;;
47784;SDS011;35233;55.686;37.848;2022-12-18T05:59:26;6.85;;;4.47;;
47784;SDS011;35233;55.686;37.848;2022-12-18T06:01:51;6.10;;;4.38;;
47784;SDS011;35233;55.686;37.848;2022-12-18T06:04:17;5.82;;;4.25;;
47784;SDS011;35233;55.686;37.848;2022-12-18T06:06:42;5.38;;;4.20;;
47784;SDS011;35233;55.686;37.848;2022-12-18T06:09:08;5.47;;;4.07;;
47784;SDS011;35233;55.686;37.848;2022-12-18T06:11:35;5.53;;;4.07;;
47784;SDS011;35233;55.686;37.848;2022-12-18T06:14:05;6.05;;;4.28;;
47784;SDS011;35233;55.686;37.848;2022-12-18T06:16:31;6.07;;;4.30;;
47784;SDS011;35233;55.686;37.848;2022-12-18T06:18:57;6.10;;;4.20;;
47784;SDS011;35233;55.686;37.848;2022-12-18T06:21:23;5.88;;;4.15;;
47784;SDS011;35233;55.686;37.848;2022-12-18T06:23:49;5.85;;;4.50;;
47784;SDS011;35233;55.686;37.848;2022-12-18T06:26:14;6.05;;;4.15;;
47784;SDS011;35233;55.686;37.848;2022-12-18T06:28:40;5.72;;;4.22;;
47784;SDS011;35233;55.686;37.848;2022-12-18T06:31:07;5.72;;;3.88;;
47784;SDS011;35233;55.686;37.848;2022-12-18T06:33:33;5.18;;;3.75;;
47784;SDS011;35233;55.686;37.848;2022-12-18T06:36:00;5.78;;;4.30;;
47784;SDS011;35233;55.686;37.848;2022-12-18T06:38:27;6.38;;;4.60;;
47784;SDS011;35233;55.686;37.848;2022-12-18T06:40:52;6.03;;;4.07;;
47784;SDS011;35233;55.686;37.848;2022-12-18T06:43:18;7.43;;;4.50;;
47784;SDS011;35233;55.686;37.848;2022-12-18T06:45:44;7.82;;;4.25;;
47784;SDS011;35233;55.686;37.848;2022-12-18T06:48:09;5.57;;;4.30;;
47784;SDS011;35233;55.686;37.848;2022-12-18T06:50:35;6.15;;;4.70;;
47784;SDS011;35233;55.686;37.848;2022-12-18T06:53:00;6.50;;;4.32;;
47784;SDS011;35233;55.686;37.848;2022-12-18T06:55:26;7.88;;;4.97;;
47784;SDS011;35233;55.686;37.848;2022-12-18T06:57:51;6.78;;;4.68;;
47784;SDS011;35233;55.686;37.848;2022-12-18T07:00:20;6.20;;;4.60;;
47784;SDS011;35233;55.686;37.848;2022-12-18T07:02:45;6.00;;;4.35;;
47784;SDS011;35233;55.686;37.848;2022-12-18T07:05:11;6.00;;;4.30;;
47784;SDS011;35233;55.686;37.848;2022-12-18T07:07:36;7.10;;;4.72;;
47784;SDS011;35233;55.686;37.848;2022-12-18T07:10:02;7.50;;;4.80;;
47784;SDS011;35233;55.686;37.848;2022-12-18T07:12:28;8.25;;;4.63;;
47784;SDS011;35233;55.686;37.848;2022-12-18T07:14:54;7.18;;;5.15;;
47784;SDS011;35233;55.686;37.848;2022-12-18T07:17:20;6.45;;;4.80;;
47784;SDS011;35233;55.686;37.848;2022-12-18T07:19:45;8.38;;;5.15;;
47784;SDS011;35233;55.686;37.848;2022-12-18T07:22:11;7.22;;;4.97;;
47784;SDS011;35233;55.686;37.848;2022-12-18T07:24:36;7.65;;;4.85;;
47784;SDS011;35233;55.686;37.848;2022-12-18T07:27:02;6.88;;;4.70;;
47784;SDS011;35233;55.686;37.848;2022-12-18T07:29:27;6.78;;;4.78;;
47784;SDS011;35233;55.686;37.848;2022-12-18T07:31:53;6.60;;;4.47;;
47784;SDS011;35233;55.686;37.848;2022-12-18T07:34:19;8.95;;;4.93;;
47784;SDS011;35233;55.686;37.848;2022-12-18T07:36:44;6.45;;;4.63;;
47784;SDS011;35233;55.686;37.848;2022-12-18T07:39:10;6.88;;;4.75;;
47784;SDS011;35233;55.686;37.848;2022-12-18T07:41:36;7.30;;;4.85;;
47784;SDS011;35233;55.686;37.848;2022-12-18T07:44:02;6.63;;;4.90;;
47784;SDS011;35233;55.686;37.848;2022-12-18T07:46:28;7.07;;;5.05;;
47784;SDS011;35233;55.686;37.848;2022-12-18T07:48:53;7.55;;;4.32;;
47784;SDS011;35233;55.686;37.848;2022-12-18T07:51:18;8.73;;;4.85;;
47784;SDS011;35233;55.686;37.848;2022-12-18T07:53:44;6.75;;;4.65;;
47784;SDS011;35233;55.686;37.848;2022-12-18T07:56:10;7.20;;;4.97;;
47784;SDS011;35233;55.686;37.848;2022-12-18T07:58:37;7.95;;;4.80;;
47784;SDS011;35233;55.686;37.848;2022-12-18T08:01:09;8.45;;;4.80;;
47784;SDS011;35233;55.686;37.848;2022-12-18T08:03:36;6.22;;;4.47;;
47784;SDS011;35233;55.686;37.848;2022-12-18T08:06:04;6.00;;;4.30;;
47784;SDS011;35233;55.686;37.848;2022-12-18T08:08:32;6.70;;;4.47;;
47784;SDS011;35233;55.686;37.848;2022-12-18T08:10:58;7.50;;;4.50;;
47784;SDS011;35233;55.686;37.848;2022-12-18T08:13:24;6.60;;;4.80;;
47784;SDS011;35233;55.686;37.848;2022-12-18T08:16:00;6.03;;;4.40;;
47784;SDS011;35233;55.686;37.848;2022-12-18T08:18:27;6.50;;;4.57;;
47784;SDS011;35233;55.686;37.848;2022-12-18T08:20:54;8.43;;;4.85;;
47784;SDS011;35233;55.686;37.848;2022-12-18T08:23:20;7.35;;;4.32;;
47784;SDS011;35233;55.686;37.848;2022-12-18T08:25:46;8.05;;;4.40;;
47784;SDS011;35233;55.686;37.848;2022-12-18T08:28:12;6.72;;;4.70;;
47784;SDS011;35233;55.686;37.848;2022-12-18T08:30:38;7.28;;;4.50;;
47784;SDS011;35233;55.686;37.848;2022-12-18T08:33:03;7.18;;;4.63;;
47784;SDS011;35233;55.686;37.848;2022-12-18T08:35:30;5.88;;;4.50;;
47784;SDS011;35233;55.686;37.848;2022-12-18T08:37:55;6.63;;;4.70;;
47784;SDS011;35233;55.686;37.848;2022-12-18T08:40:21;6.28;;;4.53;;
47784;SDS011;35233;55.686;37.848;2022-12-18T08:42:47;6.70;;;4.63;;
47784;SDS011;35233;55.686;37.848;2022-12-18T08:45:31;8.82;;;5.30;;
47784;SDS011;35233;55.686;37.848;2022-12-18T08:47:58;8.45;;;5.00;;
47784;SDS011;35233;55.686;37.848;2022-12-18T08:50:24;7.20;;;4.78;;
47784;SDS011;35233;55.686;37.848;2022-12-18T08:52:49;7.72;;;5.20;;
47784;SDS011;35233;55.686;37.848;2022-12-18T08:55:15;8.13;;;5.35;;
47784;SDS011;35233;55.686;37.848;2022-12-18T08:57:41;7.68;;;5.35;;
47784;SDS011;35233;55.686;37.848;2022-12-18T09:00:12;7.65;;;5.10;;
47784;SDS011;35233;55.686;37.848;2022-12-18T09:02:38;6.95;;;4.80;;
47784;SDS011;35233;55.686;37.848;2022-12-18T09:05:04;10.88;;;5.57;;
47784;SDS011;35233;55.686;37.848;2022-12-18T09:07:30;9.48;;;5.72;;
47784;SDS011;35233;55.686;37.848;2022-12-18T09:09:55;9.00;;;6.10;;
47784;SDS011;35233;55.686;37.848;2022-12-18T09:12:21;9.30;;;5.57;;
47784;SDS011;35233;55.686;37.848;2022-12-18T09:14:47;9.85;;;6.03;;
47784;SDS011;35233;55.686;37.848;2022-12-18T09:17:12;7.50;;;5.28;;
47784;SDS011;35233;55.686;37.848;2022-12-18T09:19:38;8.13;;;5.65;;
47784;SDS011;35233;55.686;37.848;2022-12-18T09:22:03;8.45;;;5.68;;
47784;SDS011;35233;55.686;37.848;2022-12-18T09:24:29;8.82;;;6.18;;
47784;SDS011;35233;55.686;37.848;2022-12-18T09:26:54;10.23;;;6.22;;
47784;SDS011;35233;55.686;37.848;2022-12-18T09:29:20;9.38;;;5.90;;
47784;SDS011;35233;55.686;37.848;2022-12-18T09:31:46;10.60;;;5.72;;
47784;SDS011;35233;55.686;37.848;2022-12-18T09:34:15;11.32;;;6.00;;
47784;SDS011;35233;55.686;37.848;2022-12-18T09:36:46;9.93;;;5.40;;
47784;SDS011;35233;55.686;37.848;2022-12-18T09:39:12;9.43;;;5.80;;
47784;SDS011;35233;55.686;37.848;2022-12-18T09:41:45;18.13;;;5.70;;
47784;SDS011;35233;55.686;37.848;2022-12-18T09:44:23;10.73;;;5.43;;
47784;SDS011;35233;55.686;37.848;2022-12-18T09:49:21;13.90;;;5.40;;
47784;SDS011;35233;55.686;37.848;2022-12-18T09:51:58;8.55;;;5.78;;
47784;SDS011;35233;55.686;37.848;2022-12-18T09:54:37;16.75;;;5.30;;
47784;SDS011;35233;55.686;37.848;2022-12-18T09:57:04;9.50;;;5.60;;
47784;SDS011;35233;55.686;37.848;2022-12-18T09:59:37;9.25;;;5.22;;
47784;SDS011;35233;55.686;37.848;2022-12-18T10:02:24;7.72;;;5.50;;
47784;SDS011;35233;55.686;37.848;2022-12-18T10:05:13;7.63;;;5.05;;
47784;SDS011;35233;55.686;37.848;2022-12-18T10:08:16;7.07;;;5.32;;
47784;SDS011;35233;55.686;37.848;2022-12-18T10:10:52;9.80;;;5.28;;
47784;SDS011;35233;55.686;37.848;2022-12-18T10:15:51;9.40;;;5.32;;
47784;SDS011;35233;55.686;37.848;2022-12-18T10:20:58;12.70;;;5.40;;
47784;SDS011;35233;55.686;37.848;2022-12-18T10:23:32;8.65;;;4.93;;
47784;SDS011;35233;55.686;37.848;2022-12-18T10:26:18;9.32;;;5.03;;
47784;SDS011;35233;55.686;37.848;2022-12-18T10:28:44;7.60;;;5.15;;
47784;SDS011;35233;55.686;37.848;2022-12-18T10:31:16;9.48;;;5.15;;
47784;SDS011;35233;55.686;37.848;2022-12-18T10:33:47;9.70;;;4.95;;
47784;SDS011;35233;55.686;37.848;2022-12-18T10:36:12;9.23;;;4.88;;
47784;SDS011;35233;55.686;37.848;2022-12-18T10:38:38;10.80;;;5.05;;
47784;SDS011;35233;55.686;37.848;2022-12-18T10:41:05;8.48;;;4.70;;
47784;SDS011;35233;55.686;37.848;2022-12-18T10:43:44;10.40;;;5.72;;
47784;SDS011;35233;55.686;37.848;2022-12-18T10:48:40;10.38;;;4.88;;
47784;SDS011;35233;55.686;37.848;2022-12-18T10:51:30;7.50;;;4.20;;
47784;SDS011;35233;55.686;37.848;2022-12-18T10:54:34;8.93;;;5.07;;
47784;SDS011;35233;55.686;37.848;2022-12-18T10:56:53;8.82;;;5.00;;
47784;SDS011;35233;55.686;37.848;2022-12-18T10:59:49;8.82;;;5.18;;
47784;SDS011;35233;55.686;37.848;2022-12-18T11:02:52;11.95;;;5.20;;
47784;SDS011;35233;55.686;37.848;2022-12-18T11:05:30;7.45;;;4.70;;
47784;SDS011;35233;55.686;37.848;2022-12-18T11:08:02;7.00;;;4.80;;
47784;SDS011;35233;55.686;37.848;2022-12-18T11:10:30;7.32;;;4.60;;
47784;SDS011;35233;55.686;37.848;2022-12-18T11:13:17;9.05;;;4.68;;
47784;SDS011;35233;55.686;37.848;2022-12-18T11:15:45;7.65;;;4.90;;
47784;SDS011;35233;55.686;37.848;2022-12-18T11:18:31;7.55;;;4.82;;
47784;SDS011;35233;55.686;37.848;2022-12-18T11:21:05;8.18;;;4.82;;
47784;SDS011;35233;55.686;37.848;2022-12-18T11:23:33;10.05;;;5.13;;
47784;SDS011;35233;55.686;37.848;2022-12-18T11:26:01;8.32;;;4.60;;
47784;SDS011;35233;55.686;37.848;2022-12-18T11:28:37;6.30;;;4.72;;
47784;SDS011;35233;55.686;37.848;2022-12-18T11:36:28;10.30;;;4.95;;
47784;SDS011;35233;55.686;37.848;2022-12-18T11:39:02;7.63;;;4.90;;
47784;SDS011;35233;55.686;37.848;2022-12-18T11:41:41;9.20;;;5.22;;
47784;SDS011;35233;55.686;37.848;2022-12-18T11:50:24;7.75;;;4.72;;
47784;SDS011;35233;55.686;37.848;2022-12-18T11:52:53;8.80;;;5.32;;
47784;SDS011;35233;55.686;37.848;2022-12-18T12:01:15;7.35;;;5.05;;
47784;SDS011;35233;55.686;37.848;2022-12-18T12:06:55;8.27;;;4.30;;
47784;SDS011;35233;55.686;37.848;2022-12-18T12:19:06;7.15;;;4.50;;
47784;SDS011;35233;55.686;37.848;2022-12-18T12:27:40;6.75;;;4.55;;
47784;SDS011;35233;55.686;37.848;2022-12-18T12:40:43;6.93;;;4.18;;
47784;SDS011;35233;55.686;37.848;2022-12-18T12:43:35;5.88;;;4.35;;
47784;SDS011;35233;55.686;37.848;2022-12-18T12:46:07;6.03;;;4.28;;
47784;SDS011;35233;55.686;37.848;2022-12-18T12:48:36;6.72;;;4.07;;
47784;SDS011;35233;55.686;37.848;2022-12-18T12:51:14;5.68;;;4.03;;
47784;SDS011;35233;55.686;37.848;2022-12-18T12:53:44;5.65;;;4.00;;
47784;SDS011;35233;55.686;37.848;2022-12-18T12:56:11;6.43;;;4.20;;
47784;SDS011;35233;55.686;37.848;2022-12-18T13:04:14;6.15;;;3.90;;
47784;SDS011;35233;55.686;37.848;2022-12-18T13:06:56;6.10;;;4.40;;
47784;SDS011;35233;55.686;37.848;2022-12-18T13:09:30;6.00;;;4.30;;
47784;SDS011;35233;55.686;37.848;2022-12-18T13:12:01;5.35;;;3.95;;
47784;SDS011;35233;55.686;37.848;2022-12-18T13:14:48;5.72;;;4.25;;
47784;SDS011;35233;55.686;37.848;2022-12-18T13:17:14;7.22;;;4.30;;
47784;SDS011;35233;55.686;37.848;2022-12-18T13:19:49;6.20;;;4.05;;
47784;SDS011;35233;55.686;37.848;2022-12-18T13:24:47;5.70;;;3.72;;
47784;SDS011;35233;55.686;37.848;2022-12-18T13:35:51;7.72;;;5.10;;
47784;SDS011;35233;55.686;37.848;2022-12-18T13:38:37;9.38;;;5.22;;
47784;SDS011;35233;55.686;37.848;2022-12-18T13:46:20;14.18;;;7.90;;
47784;SDS011;35233;55.686;37.848;2022-12-18T13:48:55;15.48;;;7.20;;
47784;SDS011;35233;55.686;37.848;2022-12-18T13:51:43;9.95;;;6.22;;
47784;SDS011;35233;55.686;37.848;2022-12-18T13:54:28;10.43;;;6.18;;
47784;SDS011;35233;55.686;37.848;2022-12-18T13:57:05;12.95;;;6.60;;
47784;SDS011;35233;55.686;37.848;2022-12-18T13:59:50;8.93;;;6.03;;
47784;SDS011;35233;55.686;37.848;2022-12-18T14:02:17;8.45;;;5.55;;
47784;SDS011;35233;55.686;37.848;2022-12-18T14:04:47;19.20;;;6.25;;
47784;SDS011;35233;55.686;37.848;2022-12-18T14:10:11;9.45;;;6.03;;
47784;SDS011;35233;55.686;37.848;2022-12-18T14:12:38;11.10;;;6.95;;
47784;SDS011;35233;55.686;37.848;2022-12-18T14:17:52;10.30;;;6.07;;
47784;SDS011;35233;55.686;37.848;2022-12-18T14:20:24;9.77;;;5.90;;
47784;SDS011;35233;55.686;37.848;2022-12-18T14:22:51;8.63;;;5.68;;
47784;SDS011;35233;55.686;37.848;2022-12-18T14:25:26;10.98;;;6.38;;
47784;SDS011;35233;55.686;37.848;2022-12-18T14:27:59;17.85;;;5.78;;
47784;SDS011;35233;55.686;37.848;2022-12-18T14:33:14;9.15;;;5.72;;
47784;SDS011;35233;55.686;37.848;2022-12-18T14:36:00;8.38;;;5.50;;
47784;SDS011;35233;55.686;37.848;2022-12-18T14:38:29;8.75;;;6.00;;
47784;SDS011;35233;55.686;37.848;2022-12-18T14:43:35;11.38;;;6.03;;
47784;SDS011;35233;55.686;37.848;2022-12-18T14:46:02;10.25;;;6.47;;
47784;SDS011;35233;55.686;37.848;2022-12-18T14:48:37;10.80;;;6.43;;
47784;SDS011;35233;55.686;37.848;2022-12-18T14:51:06;9.00;;;5.93;;
47784;SDS011;35233;55.686;37.848;2022-12-18T14:53:33;9.05;;;5.88;;
47784;SDS011;35233;55.686;37.848;2022-12-18T14:56:14;9.75;;;6.45;;
47784;SDS011;35233;55.686;37.848;2022-12-18T14:58:44;10.55;;;5.93;;
47784;SDS011;35233;55.686;37.848;2022-12-18T15:04:27;11.65;;;6.55;;
47784;SDS011;35233;55.686;37.848;2022-12-18T15:07:22;9.25;;;5.97;;
47784;SDS011;35233;55.686;37.848;2022-12-18T15:12:40;8.13;;;5.80;;
47784;SDS011;35233;55.686;37.848;2022-12-18T15:17:58;13.40;;;6.40;;
47784;SDS011;35233;55.686;37.848;2022-12-18T15:20:27;9.15;;;6.35;;
47784;SDS011;35233;55.686;37.848;2022-12-18T15:22:56;13.13;;;7.57;;
47784;SDS011;35233;55.686;37.848;2022-12-18T15:27:54;13.68;;;7.82;;
47784;SDS011;35233;55.686;37.848;2022-12-18T15:30:23;14.40;;;8.80;;
47784;SDS011;35233;55.686;37.848;2022-12-18T15:32:50;14.48;;;9.63;;
47784;SDS011;35233;55.686;37.848;2022-12-18T15:35:24;15.02;;;10.13;;
47784;SDS011;35233;55.686;37.848;2022-12-18T15:37:50;15.43;;;9.65;;
47784;SDS011;35233;55.686;37.848;2022-12-18T15:40:21;16.77;;;10.75;;
47784;SDS011;35233;55.686;37.848;2022-12-18T15:42:48;16.15;;;10.55;;
47784;SDS011;35233;55.686;37.848;2022-12-18T15:45:37;16.33;;;10.60;;
47784;SDS011;35233;55.686;37.848;2022-12-18T15:48:06;16.13;;;10.98;;
47784;SDS011;35233;55.686;37.848;2022-12-18T15:50:53;18.00;;;11.10;;
47784;SDS011;35233;55.686;37.848;2022-12-18T15:53:22;17.10;;;11.57;;
47784;SDS011;35233;55.686;37.848;2022-12-18T15:55:49;16.50;;;11.07;;
47784;SDS011;35233;55.686;37.848;2022-12-18T15:58:33;18.17;;;11.55;;
47784;SDS011;35233;55.686;37.848;2022-12-18T16:00:59;16.73;;;11.15;;
47784;SDS011;35233;55.686;37.848;2022-12-18T16:03:25;15.93;;;10.50;;
47784;SDS011;35233;55.686;37.848;2022-12-18T16:05:51;15.93;;;10.98;;
47784;SDS011;35233;55.686;37.848;2022-12-18T16:08:17;17.05;;;11.52;;
47784;SDS011;35233;55.686;37.848;2022-12-18T16:10:42;16.95;;;10.93;;
47784;SDS011;35233;55.686;37.848;2022-12-18T16:13:09;14.45;;;10.40;;
47784;SDS011;35233;55.686;37.848;2022-12-18T16:15:36;16.17;;;10.70;;
47784;SDS011;35233;55.686;37.848;2022-12-18T16:18:02;14.65;;;9.95;;
47784;SDS011;35233;55.686;37.848;2022-12-18T16:20:28;14.60;;;10.00;;
47784;SDS011;35233;55.686;37.848;2022-12-18T16:22:53;14.65;;;9.88;;
47784;SDS011;35233;55.686;37.848;2022-12-18T16:25:23;16.23;;;11.00;;
47784;SDS011;35233;55.686;37.848;2022-12-18T16:27:50;13.95;;;9.45;;
47784;SDS011;35233;55.686;37.848;2022-12-18T16:30:18;16.67;;;11.02;;
47784;SDS011;35233;55.686;37.848;2022-12-18T16:32:45;14.63;;;9.60;;
47784;SDS011;35233;55.686;37.848;2022-12-18T16:35:11;14.77;;;9.23;;
47784;SDS011;35233;55.686;37.848;2022-12-18T16:37:39;14.45;;;10.23;;
47784;SDS011;35233;55.686;37.848;2022-12-18T16:40:09;13.68;;;9.32;;
47784;SDS011;35233;55.686;37.848;2022-12-18T16:42:38;13.27;;;8.48;;
47784;SDS011;35233;55.686;37.848;2022-12-18T16:45:05;12.15;;;8.05;;
47784;SDS011;35233;55.686;37.848;2022-12-18T16:47:32;12.07;;;8.40;;
47784;SDS011;35233;55.686;37.848;2022-12-18T16:49:58;12.52;;;7.82;;
47784;SDS011;35233;55.686;37.848;2022-12-18T16:52:24;10.98;;;7.53;;
47784;SDS011;35233;55.686;37.848;2022-12-18T16:54:50;12.68;;;8.02;;
47784;SDS011;35233;55.686;37.848;2022-12-18T16:57:16;10.75;;;6.90;;
47784;SDS011;35233;55.686;37.848;2022-12-18T16:59:44;10.98;;;7.35;;
47784;SDS011;35233;55.686;37.848;2022-12-18T17:02:14;14.95;;;7.13;;
47784;SDS011;35233;55.686;37.848;2022-12-18T17:04:44;10.52;;;6.93;;
47784;SDS011;35233;55.686;37.848;2022-12-18T17:07:13;10.55;;;6.95;;